sensor_id;sensor_type;location;lat;lon;timestamp;P1;durP1;ratioP1;P2;durP2;ratioP2
11046;SDS011;5576;50.008;10.596;2022-09-20T00:01:18;3.30;;;1.60;;
11046;SDS011;5576;50.008;10.596;2022-09-20T00:03:46;1.58;;;1.40;;
11046;SDS011;5576;50.008;10.596;2022-09-20T00:06:15;2.35;;;1.50;;
11046;SDS011;5576;50.008;10.596;2022-09-20T00:08:43;2.42;;;1.60;;
11046;SDS011;5576;50.008;10.596;2022-09-20T00:11:10;2.22;;;1.42;;
11046;SDS011;5576;50.008;10.596;2022-09-20T00:13:40;2.45;;;1.20;;
11046;SDS011;5576;50.008;10.596;2022-09-20T00:16:07;2.17;;;1.27;;
11046;SDS011;5576;50.008;10.596;2022-09-20T00:18:35;1.60;;;1.20;;
11046;SDS011;5576;50.008;10.596;2022-09-20T00:21:01;2.10;;;1.20;;
11046;SDS011;5576;50.008;10.596;2022-09-20T00:23:29;3.08;;;1.30;;
11046;SDS011;5576;50.008;10.596;2022-09-20T00:25:56;2.10;;;1.30;;
11046;SDS011;5576;50.008;10.596;2022-09-20T00:28:24;2.22;;;1.20;;
11046;SDS011;5576;50.008;10.596;2022-09-20T00:30:51;2.17;;;1.13;;
11046;SDS011;5576;50.008;10.596;2022-09-20T00:33:18;2.65;;;1.30;;
11046;SDS011;5576;50.008;10.596;2022-09-20T00:35:44;2.03;;;1.30;;
11046;SDS011;5576;50.008;10.596;2022-09-20T00:38:10;1.98;;;1.27;;
11046;SDS011;5576;50.008;10.596;2022-09-20T00:40:38;1.80;;;1.20;;
11046;SDS011;5576;50.008;10.596;2022-09-20T00:43:05;1.95;;;1.20;;
11046;SDS011;5576;50.008;10.596;2022-09-20T00:45:31;1.90;;;1.20;;
11046;SDS011;5576;50.008;10.596;2022-09-20T00:48:02;2.47;;;1.30;;
11046;SDS011;5576;50.008;10.596;2022-09-20T00:50:33;2.33;;;1.30;;
11046;SDS011;5576;50.008;10.596;2022-09-20T00:53:07;2.22;;;1.33;;
11046;SDS011;5576;50.008;10.596;2022-09-20T00:55:37;1.80;;;1.30;;
11046;SDS011;5576;50.008;10.596;2022-09-20T00:58:07;2.67;;;1.50;;
11046;SDS011;5576;50.008;10.596;2022-09-20T01:00:34;3.08;;;1.20;;
11046;SDS011;5576;50.008;10.596;2022-09-20T01:03:02;2.73;;;1.30;;
11046;SDS011;5576;50.008;10.596;2022-09-20T01:05:31;2.70;;;1.42;;
11046;SDS011;5576;50.008;10.596;2022-09-20T01:07:59;1.67;;;1.20;;
11046;SDS011;5576;50.008;10.596;2022-09-20T01:10:25;2.90;;;1.20;;
11046;SDS011;5576;50.008;10.596;2022-09-20T01:12:51;1.80;;;1.30;;
11046;SDS011;5576;50.008;10.596;2022-09-20T01:15:17;2.22;;;1.20;;
11046;SDS011;5576;50.008;10.596;2022-09-20T01:17:45;1.75;;;1.30;;
11046;SDS011;5576;50.008;10.596;2022-09-20T01:20:16;3.20;;;1.30;;
11046;SDS011;5576;50.008;10.596;2022-09-20T01:22:54;2.33;;;1.10;;
11046;SDS011;5576;50.008;10.596;2022-09-20T01:28:27;2.63;;;1.02;;
11046;SDS011;5576;50.008;10.596;2022-09-20T01:33:57;2.35;;;1.10;;
11046;SDS011;5576;50.008;10.596;2022-09-20T01:39:07;2.33;;;1.10;;
11046;SDS011;5576;50.008;10.596;2022-09-20T01:41:37;2.15;;;1.00;;
11046;SDS011;5576;50.008;10.596;2022-09-20T01:44:12;1.70;;;1.00;;
11046;SDS011;5576;50.008;10.596;2022-09-20T01:46:42;1.87;;;1.00;;
11046;SDS011;5576;50.008;10.596;2022-09-20T01:49:11;2.53;;;1.02;;
11046;SDS011;5576;50.008;10.596;2022-09-20T02:03:25;2.05;;;1.10;;
11046;SDS011;5576;50.008;10.596;2022-09-20T02:06:20;1.63;;;1.10;;
11046;SDS011;5576;50.008;10.596;2022-09-20T02:09:02;2.70;;;1.17;;
11046;SDS011;5576;50.008;10.596;2022-09-20T02:14:42;3.20;;;1.30;;
11046;SDS011;5576;50.008;10.596;2022-09-20T02:17:30;1.63;;;1.33;;
11046;SDS011;5576;50.008;10.596;2022-09-20T02:23:03;1.80;;;1.10;;
11046;SDS011;5576;50.008;10.596;2022-09-20T02:28:22;1.95;;;1.30;;
11046;SDS011;5576;50.008;10.596;2022-09-20T02:37:05;2.28;;;1.20;;
11046;SDS011;5576;50.008;10.596;2022-09-20T02:42:24;2.40;;;1.48;;
11046;SDS011;5576;50.008;10.596;2022-09-20T02:45:03;2.50;;;1.30;;
11046;SDS011;5576;50.008;10.596;2022-09-20T02:47:37;3.13;;;1.40;;
11046;SDS011;5576;50.008;10.596;2022-09-20T02:53:02;2.90;;;1.20;;
11046;SDS011;5576;50.008;10.596;2022-09-20T02:55:33;1.55;;;1.35;;
11046;SDS011;5576;50.008;10.596;2022-09-20T03:03:49;2.88;;;1.30;;
11046;SDS011;5576;50.008;10.596;2022-09-20T03:06:29;3.17;;;1.60;;
11046;SDS011;5576;50.008;10.596;2022-09-20T03:20:45;2.83;;;1.50;;
11046;SDS011;5576;50.008;10.596;2022-09-20T03:23:36;2.70;;;1.60;;
11046;SDS011;5576;50.008;10.596;2022-09-20T03:26:21;2.60;;;1.30;;
11046;SDS011;5576;50.008;10.596;2022-09-20T03:29:02;2.47;;;1.55;;
11046;SDS011;5576;50.008;10.596;2022-09-20T03:34:42;3.45;;;1.90;;
11046;SDS011;5576;50.008;10.596;2022-09-20T03:43:12;2.30;;;1.50;;
11046;SDS011;5576;50.008;10.596;2022-09-20T03:46:07;3.50;;;2.55;;
11046;SDS011;5576;50.008;10.596;2022-09-20T03:48:48;4.28;;;3.08;;
11046;SDS011;5576;50.008;10.596;2022-09-20T03:51:30;4.03;;;2.70;;
11046;SDS011;5576;50.008;10.596;2022-09-20T03:54:14;3.03;;;1.92;;
11046;SDS011;5576;50.008;10.596;2022-09-20T04:05:31;2.72;;;1.73;;
11046;SDS011;5576;50.008;10.596;2022-09-20T04:11:12;3.47;;;2.10;;
11046;SDS011;5576;50.008;10.596;2022-09-20T04:16:57;3.38;;;2.00;;
11046;SDS011;5576;50.008;10.596;2022-09-20T04:22:18;3.38;;;1.83;;
11046;SDS011;5576;50.008;10.596;2022-09-20T04:24:48;2.85;;;1.90;;
11046;SDS011;5576;50.008;10.596;2022-09-20T04:29:54;3.73;;;1.90;;
11046;SDS011;5576;50.008;10.596;2022-09-20T04:37:48;2.83;;;2.08;;
11046;SDS011;5576;50.008;10.596;2022-09-20T04:45:42;3.42;;;2.28;;
11046;SDS011;5576;50.008;10.596;2022-09-20T04:57:26;4.30;;;2.47;;
11046;SDS011;5576;50.008;10.596;2022-09-20T05:02:43;4.40;;;2.33;;
11046;SDS011;5576;50.008;10.596;2022-09-20T05:05:38;3.63;;;2.20;;
11046;SDS011;5576;50.008;10.596;2022-09-20T05:25:37;4.82;;;2.53;;
11046;SDS011;5576;50.008;10.596;2022-09-20T05:28:07;4.18;;;2.67;;
11046;SDS011;5576;50.008;10.596;2022-09-20T05:30:45;6.03;;;2.80;;
11046;SDS011;5576;50.008;10.596;2022-09-20T05:35:48;4.07;;;2.65;;
11046;SDS011;5576;50.008;10.596;2022-09-20T05:38:35;4.28;;;2.50;;
11046;SDS011;5576;50.008;10.596;2022-09-20T05:43:57;5.32;;;2.55;;
11046;SDS011;5576;50.008;10.596;2022-09-20T05:46:39;3.55;;;2.55;;
11046;SDS011;5576;50.008;10.596;2022-09-20T05:57:58;4.43;;;2.65;;
11046;SDS011;5576;50.008;10.596;2022-09-20T06:00:41;4.43;;;2.80;;
11046;SDS011;5576;50.008;10.596;2022-09-20T06:03:17;5.60;;;2.97;;
11046;SDS011;5576;50.008;10.596;2022-09-20T06:06:01;4.63;;;2.85;;
11046;SDS011;5576;50.008;10.596;2022-09-20T06:11:42;5.25;;;3.00;;
11046;SDS011;5576;50.008;10.596;2022-09-20T06:16:54;4.40;;;2.90;;
11046;SDS011;5576;50.008;10.596;2022-09-20T06:19:45;5.77;;;3.07;;
11046;SDS011;5576;50.008;10.596;2022-09-20T06:22:32;4.53;;;2.83;;
11046;SDS011;5576;50.008;10.596;2022-09-20T06:25:09;5.50;;;3.07;;
11046;SDS011;5576;50.008;10.596;2022-09-20T06:27:40;4.10;;;3.10;;
11046;SDS011;5576;50.008;10.596;2022-09-20T06:30:13;4.55;;;2.80;;
11046;SDS011;5576;50.008;10.596;2022-09-20T06:32:58;5.28;;;3.17;;
11046;SDS011;5576;50.008;10.596;2022-09-20T06:35:36;5.32;;;3.17;;
11046;SDS011;5576;50.008;10.596;2022-09-20T06:38:11;5.57;;;3.10;;
11046;SDS011;5576;50.008;10.596;2022-09-20T06:41:18;5.30;;;3.28;;
11046;SDS011;5576;50.008;10.596;2022-09-20T06:43:53;3.90;;;2.70;;
11046;SDS011;5576;50.008;10.596;2022-09-20T06:46:26;4.05;;;2.83;;
11046;SDS011;5576;50.008;10.596;2022-09-20T06:48:54;6.45;;;2.70;;
11046;SDS011;5576;50.008;10.596;2022-09-20T06:51:21;4.57;;;2.80;;
11046;SDS011;5576;50.008;10.596;2022-09-20T06:53:48;3.80;;;2.60;;
11046;SDS011;5576;50.008;10.596;2022-09-20T06:56:16;4.30;;;2.67;;
11046;SDS011;5576;50.008;10.596;2022-09-20T06:58:44;6.20;;;3.00;;
11046;SDS011;5576;50.008;10.596;2022-09-20T07:01:11;7.63;;;2.97;;
11046;SDS011;5576;50.008;10.596;2022-09-20T07:03:38;5.27;;;2.80;;
11046;SDS011;5576;50.008;10.596;2022-09-20T07:06:04;4.63;;;2.58;;
11046;SDS011;5576;50.008;10.596;2022-09-20T07:08:30;4.68;;;2.38;;
11046;SDS011;5576;50.008;10.596;2022-09-20T07:10:56;5.47;;;2.30;;
11046;SDS011;5576;50.008;10.596;2022-09-20T07:13:28;4.45;;;2.42;;
11046;SDS011;5576;50.008;10.596;2022-09-20T07:16:01;5.60;;;2.80;;
11046;SDS011;5576;50.008;10.596;2022-09-20T07:18:29;6.85;;;2.45;;
11046;SDS011;5576;50.008;10.596;2022-09-20T07:20:56;4.88;;;2.75;;
11046;SDS011;5576;50.008;10.596;2022-09-20T07:23:23;5.25;;;2.42;;
11046;SDS011;5576;50.008;10.596;2022-09-20T07:25:50;5.50;;;2.40;;
11046;SDS011;5576;50.008;10.596;2022-09-20T07:28:16;4.28;;;2.28;;
11046;SDS011;5576;50.008;10.596;2022-09-20T07:30:46;5.63;;;2.40;;
11046;SDS011;5576;50.008;10.596;2022-09-20T07:33:12;6.07;;;2.40;;
11046;SDS011;5576;50.008;10.596;2022-09-20T07:35:44;5.20;;;2.60;;
11046;SDS011;5576;50.008;10.596;2022-09-20T07:38:10;5.85;;;2.30;;
11046;SDS011;5576;50.008;10.596;2022-09-20T07:40:36;6.05;;;2.40;;
11046;SDS011;5576;50.008;10.596;2022-09-20T07:43:02;4.38;;;2.40;;
11046;SDS011;5576;50.008;10.596;2022-09-20T07:45:28;4.07;;;2.45;;
11046;SDS011;5576;50.008;10.596;2022-09-20T07:47:56;4.43;;;2.35;;
11046;SDS011;5576;50.008;10.596;2022-09-20T07:50:23;4.97;;;2.80;;
11046;SDS011;5576;50.008;10.596;2022-09-20T07:52:49;5.50;;;2.70;;
11046;SDS011;5576;50.008;10.596;2022-09-20T07:55:14;5.07;;;2.53;;
11046;SDS011;5576;50.008;10.596;2022-09-20T07:57:41;5.05;;;2.88;;
11046;SDS011;5576;50.008;10.596;2022-09-20T08:00:07;5.72;;;3.70;;
11046;SDS011;5576;50.008;10.596;2022-09-20T08:02:38;4.82;;;2.60;;
11046;SDS011;5576;50.008;10.596;2022-09-20T08:05:04;4.50;;;2.53;;
11046;SDS011;5576;50.008;10.596;2022-09-20T08:07:30;5.45;;;2.58;;
11046;SDS011;5576;50.008;10.596;2022-09-20T08:09:56;5.47;;;2.83;;
11046;SDS011;5576;50.008;10.596;2022-09-20T08:12:22;5.10;;;2.50;;
11046;SDS011;5576;50.008;10.596;2022-09-20T08:14:48;6.60;;;2.73;;
11046;SDS011;5576;50.008;10.596;2022-09-20T08:17:14;7.05;;;2.90;;
11046;SDS011;5576;50.008;10.596;2022-09-20T08:19:40;5.50;;;2.40;;
11046;SDS011;5576;50.008;10.596;2022-09-20T08:22:07;4.65;;;2.28;;
11046;SDS011;5576;50.008;10.596;2022-09-20T08:24:34;5.03;;;2.40;;
11046;SDS011;5576;50.008;10.596;2022-09-20T08:27:00;6.07;;;2.45;;
11046;SDS011;5576;50.008;10.596;2022-09-20T08:29:27;6.97;;;2.25;;
11046;SDS011;5576;50.008;10.596;2022-09-20T08:31:52;5.70;;;2.40;;
11046;SDS011;5576;50.008;10.596;2022-09-20T08:34:22;5.68;;;2.50;;
11046;SDS011;5576;50.008;10.596;2022-09-20T08:36:48;5.40;;;2.35;;
11046;SDS011;5576;50.008;10.596;2022-09-20T08:39:16;4.55;;;2.05;;
11046;SDS011;5576;50.008;10.596;2022-09-20T08:44:50;5.18;;;2.30;;
11046;SDS011;5576;50.008;10.596;2022-09-20T08:47:22;7.78;;;2.47;;
11046;SDS011;5576;50.008;10.596;2022-09-20T08:49:51;4.85;;;1.98;;
11046;SDS011;5576;50.008;10.596;2022-09-20T08:52:20;5.72;;;1.90;;
11046;SDS011;5576;50.008;10.596;2022-09-20T08:54:54;5.60;;;2.05;;
11046;SDS011;5576;50.008;10.596;2022-09-20T08:57:22;6.22;;;2.50;;
11046;SDS011;5576;50.008;10.596;2022-09-20T08:59:52;5.97;;;2.60;;
11046;SDS011;5576;50.008;10.596;2022-09-20T09:02:19;4.95;;;1.90;;
11046;SDS011;5576;50.008;10.596;2022-09-20T09:04:46;3.10;;;1.80;;
11046;SDS011;5576;50.008;10.596;2022-09-20T09:07:15;4.03;;;2.10;;
11046;SDS011;5576;50.008;10.596;2022-09-20T09:09:46;5.93;;;2.20;;
11046;SDS011;5576;50.008;10.596;2022-09-20T09:12:15;4.30;;;2.00;;
11046;SDS011;5576;50.008;10.596;2022-09-20T09:14:47;5.47;;;2.20;;
11046;SDS011;5576;50.008;10.596;2022-09-20T09:17:20;5.13;;;2.17;;
11046;SDS011;5576;50.008;10.596;2022-09-20T09:19:50;3.97;;;1.95;;
11046;SDS011;5576;50.008;10.596;2022-09-20T09:22:22;5.55;;;1.80;;
11046;SDS011;5576;50.008;10.596;2022-09-20T09:25:05;4.20;;;1.90;;
11046;SDS011;5576;50.008;10.596;2022-09-20T09:27:32;5.38;;;1.88;;
11046;SDS011;5576;50.008;10.596;2022-09-20T09:29:59;5.15;;;1.75;;
11046;SDS011;5576;50.008;10.596;2022-09-20T09:32:27;6.45;;;2.10;;
11046;SDS011;5576;50.008;10.596;2022-09-20T09:34:55;5.28;;;2.00;;
11046;SDS011;5576;50.008;10.596;2022-09-20T09:37:47;6.03;;;2.97;;
11046;SDS011;5576;50.008;10.596;2022-09-20T09:40:19;5.28;;;2.40;;
11046;SDS011;5576;50.008;10.596;2022-09-20T09:42:53;5.50;;;2.20;;
11046;SDS011;5576;50.008;10.596;2022-09-20T09:47:53;3.88;;;1.50;;
11046;SDS011;5576;50.008;10.596;2022-09-20T09:50:25;2.65;;;1.40;;
11046;SDS011;5576;50.008;10.596;2022-09-20T09:52:55;2.60;;;1.30;;
11046;SDS011;5576;50.008;10.596;2022-09-20T09:55:24;2.53;;;1.50;;
11046;SDS011;5576;50.008;10.596;2022-09-20T10:00:40;6.00;;;3.05;;
11046;SDS011;5576;50.008;10.596;2022-09-20T10:28:43;3.72;;;2.13;;
11046;SDS011;5576;50.008;10.596;2022-09-20T10:34:00;4.47;;;1.85;;
11046;SDS011;5576;50.008;10.596;2022-09-20T10:36:43;4.15;;;1.60;;
11046;SDS011;5576;50.008;10.596;2022-09-20T10:50:47;3.80;;;1.60;;
11046;SDS011;5576;50.008;10.596;2022-09-20T10:56:27;2.80;;;1.60;;
11046;SDS011;5576;50.008;10.596;2022-09-20T11:07:17;3.35;;;1.40;;
11046;SDS011;5576;50.008;10.596;2022-09-20T11:09:47;3.50;;;1.45;;
11046;SDS011;5576;50.008;10.596;2022-09-20T11:12:36;3.53;;;1.40;;
11046;SDS011;5576;50.008;10.596;2022-09-20T11:17:59;3.25;;;1.38;;
11046;SDS011;5576;50.008;10.596;2022-09-20T11:20:33;3.15;;;1.55;;
11046;SDS011;5576;50.008;10.596;2022-09-20T11:25:51;2.42;;;1.30;;
11046;SDS011;5576;50.008;10.596;2022-09-20T11:31:02;2.80;;;1.35;;
11046;SDS011;5576;50.008;10.596;2022-09-20T11:33:31;3.13;;;1.00;;
11046;SDS011;5576;50.008;10.596;2022-09-20T11:36:05;3.37;;;1.10;;
11046;SDS011;5576;50.008;10.596;2022-09-20T11:38:40;3.33;;;1.30;;
11046;SDS011;5576;50.008;10.596;2022-09-20T11:41:14;2.60;;;1.20;;
11046;SDS011;5576;50.008;10.596;2022-09-20T11:43:47;3.88;;;1.20;;
11046;SDS011;5576;50.008;10.596;2022-09-20T11:46:20;3.03;;;1.02;;
11046;SDS011;5576;50.008;10.596;2022-09-20T11:48:53;2.22;;;1.05;;
11046;SDS011;5576;50.008;10.596;2022-09-20T11:51:31;1.75;;;1.00;;
11046;SDS011;5576;50.008;10.596;2022-09-20T11:57:04;3.60;;;1.67;;
11046;SDS011;5576;50.008;10.596;2022-09-20T11:59:36;2.70;;;1.03;;
11046;SDS011;5576;50.008;10.596;2022-09-20T12:04:56;2.13;;;1.05;;
11046;SDS011;5576;50.008;10.596;2022-09-20T12:07:25;2.20;;;1.00;;
11046;SDS011;5576;50.008;10.596;2022-09-20T12:09:57;2.25;;;1.00;;
11046;SDS011;5576;50.008;10.596;2022-09-20T12:12:31;2.47;;;1.20;;
11046;SDS011;5576;50.008;10.596;2022-09-20T12:15:02;1.50;;;0.90;;
11046;SDS011;5576;50.008;10.596;2022-09-20T12:17:59;1.40;;;1.00;;
11046;SDS011;5576;50.008;10.596;2022-09-20T12:28:39;1.80;;;1.00;;
11046;SDS011;5576;50.008;10.596;2022-09-20T12:36:42;2.20;;;1.63;;
11046;SDS011;5576;50.008;10.596;2022-09-20T12:39:18;2.67;;;1.40;;
11046;SDS011;5576;50.008;10.596;2022-09-20T12:41:53;2.53;;;1.30;;
11046;SDS011;5576;50.008;10.596;2022-09-20T12:47:24;1.67;;;1.42;;
11046;SDS011;5576;50.008;10.596;2022-09-20T12:49:53;2.70;;;1.48;;
11046;SDS011;5576;50.008;10.596;2022-09-20T12:55:30;1.55;;;0.85;;
11046;SDS011;5576;50.008;10.596;2022-09-20T13:00:42;1.57;;;1.07;;
11046;SDS011;5576;50.008;10.596;2022-09-20T13:14:12;1.75;;;0.90;;
11046;SDS011;5576;50.008;10.596;2022-09-20T13:19:32;2.40;;;1.00;;
11046;SDS011;5576;50.008;10.596;2022-09-20T13:22:03;2.15;;;0.90;;
11046;SDS011;5576;50.008;10.596;2022-09-20T13:24:36;1.85;;;1.17;;
11046;SDS011;5576;50.008;10.596;2022-09-20T13:27:07;1.70;;;1.10;;
11046;SDS011;5576;50.008;10.596;2022-09-20T13:29:39;3.60;;;1.10;;
11046;SDS011;5576;50.008;10.596;2022-09-20T13:32:22;3.50;;;1.33;;
11046;SDS011;5576;50.008;10.596;2022-09-20T13:37:38;1.92;;;1.10;;
11046;SDS011;5576;50.008;10.596;2022-09-20T13:40:23;1.85;;;0.90;;
11046;SDS011;5576;50.008;10.596;2022-09-20T13:42:59;2.80;;;1.00;;
11046;SDS011;5576;50.008;10.596;2022-09-20T13:45:29;4.13;;;1.92;;
11046;SDS011;5576;50.008;10.596;2022-09-20T13:47:57;2.88;;;1.40;;
11046;SDS011;5576;50.008;10.596;2022-09-20T13:52:56;1.92;;;1.40;;
11046;SDS011;5576;50.008;10.596;2022-09-20T13:55:32;2.38;;;1.48;;
11046;SDS011;5576;50.008;10.596;2022-09-20T13:58:05;2.80;;;1.60;;
11046;SDS011;5576;50.008;10.596;2022-09-20T14:00:45;2.60;;;1.80;;
11046;SDS011;5576;50.008;10.596;2022-09-20T14:03:15;3.03;;;1.30;;
11046;SDS011;5576;50.008;10.596;2022-09-20T14:05:50;3.13;;;1.60;;
11046;SDS011;5576;50.008;10.596;2022-09-20T14:13:36;4.53;;;3.03;;
11046;SDS011;5576;50.008;10.596;2022-09-20T14:16:05;2.90;;;1.35;;
11046;SDS011;5576;50.008;10.596;2022-09-20T14:18:33;1.48;;;0.98;;
11046;SDS011;5576;50.008;10.596;2022-09-20T14:20:59;1.35;;;0.70;;
11046;SDS011;5576;50.008;10.596;2022-09-20T14:23:27;1.40;;;0.70;;
11046;SDS011;5576;50.008;10.596;2022-09-20T14:28:42;1.90;;;0.60;;
11046;SDS011;5576;50.008;10.596;2022-09-20T14:31:13;1.80;;;0.80;;
11046;SDS011;5576;50.008;10.596;2022-09-20T14:33:41;0.90;;;0.60;;
11046;SDS011;5576;50.008;10.596;2022-09-20T14:36:11;8.95;;;7.00;;
11046;SDS011;5576;50.008;10.596;2022-09-20T14:38:41;3.10;;;1.90;;
11046;SDS011;5576;50.008;10.596;2022-09-20T14:41:09;1.90;;;1.30;;
11046;SDS011;5576;50.008;10.596;2022-09-20T14:43:36;2.25;;;1.45;;
11046;SDS011;5576;50.008;10.596;2022-09-20T14:46:02;2.22;;;1.00;;
11046;SDS011;5576;50.008;10.596;2022-09-20T14:53:46;1.35;;;0.80;;
11046;SDS011;5576;50.008;10.596;2022-09-20T14:56:14;1.25;;;0.80;;
11046;SDS011;5576;50.008;10.596;2022-09-20T15:01:29;1.20;;;0.80;;
11046;SDS011;5576;50.008;10.596;2022-09-20T15:03:56;1.90;;;1.15;;
11046;SDS011;5576;50.008;10.596;2022-09-20T15:06:23;1.25;;;0.90;;
11046;SDS011;5576;50.008;10.596;2022-09-20T15:08:49;2.63;;;1.30;;
11046;SDS011;5576;50.008;10.596;2022-09-20T15:11:16;2.33;;;1.40;;
11046;SDS011;5576;50.008;10.596;2022-09-20T15:13:42;2.55;;;1.60;;
11046;SDS011;5576;50.008;10.596;2022-09-20T15:16:09;2.55;;;1.60;;
11046;SDS011;5576;50.008;10.596;2022-09-20T15:18:39;3.90;;;2.93;;
11046;SDS011;5576;50.008;10.596;2022-09-20T15:21:06;2.25;;;2.00;;
11046;SDS011;5576;50.008;10.596;2022-09-20T15:23:35;3.28;;;1.50;;
11046;SDS011;5576;50.008;10.596;2022-09-20T15:26:01;7.87;;;4.57;;
11046;SDS011;5576;50.008;10.596;2022-09-20T15:28:28;27.55;;;14.82;;
11046;SDS011;5576;50.008;10.596;2022-09-20T15:30:56;15.27;;;8.80;;
11046;SDS011;5576;50.008;10.596;2022-09-20T15:33:22;8.63;;;6.78;;
11046;SDS011;5576;50.008;10.596;2022-09-20T15:35:48;4.30;;;3.23;;
11046;SDS011;5576;50.008;10.596;2022-09-20T15:38:15;3.63;;;1.90;;
11046;SDS011;5576;50.008;10.596;2022-09-20T15:40:45;2.15;;;1.25;;
11046;SDS011;5576;50.008;10.596;2022-09-20T15:43:13;2.53;;;1.85;;
11046;SDS011;5576;50.008;10.596;2022-09-20T15:45:49;5.65;;;4.07;;
11046;SDS011;5576;50.008;10.596;2022-09-20T15:48:18;9.87;;;6.27;;
11046;SDS011;5576;50.008;10.596;2022-09-20T15:51:01;5.97;;;4.78;;
11046;SDS011;5576;50.008;10.596;2022-09-20T15:53:31;3.13;;;1.17;;
11046;SDS011;5576;50.008;10.596;2022-09-20T15:56:00;2.85;;;1.77;;
11046;SDS011;5576;50.008;10.596;2022-09-20T15:58:28;2.10;;;1.50;;
11046;SDS011;5576;50.008;10.596;2022-09-20T16:01:00;3.95;;;1.88;;
11046;SDS011;5576;50.008;10.596;2022-09-20T16:03:29;4.10;;;2.70;;
11046;SDS011;5576;50.008;10.596;2022-09-20T16:05:56;4.03;;;2.33;;
11046;SDS011;5576;50.008;10.596;2022-09-20T16:08:23;5.07;;;3.03;;
11046;SDS011;5576;50.008;10.596;2022-09-20T16:10:57;10.77;;;7.10;;
11046;SDS011;5576;50.008;10.596;2022-09-20T16:13:23;7.15;;;5.38;;
11046;SDS011;5576;50.008;10.596;2022-09-20T16:15:58;4.68;;;3.80;;
11046;SDS011;5576;50.008;10.596;2022-09-20T16:18:25;6.13;;;5.30;;
11046;SDS011;5576;50.008;10.596;2022-09-20T16:21:12;10.70;;;8.77;;
11046;SDS011;5576;50.008;10.596;2022-09-20T16:23:41;10.75;;;9.55;;
11046;SDS011;5576;50.008;10.596;2022-09-20T16:26:11;4.90;;;3.80;;
11046;SDS011;5576;50.008;10.596;2022-09-20T16:28:38;3.83;;;2.90;;
11046;SDS011;5576;50.008;10.596;2022-09-20T16:31:05;2.67;;;2.10;;
11046;SDS011;5576;50.008;10.596;2022-09-20T16:33:31;3.47;;;2.60;;
11046;SDS011;5576;50.008;10.596;2022-09-20T16:35:58;2.45;;;2.08;;
11046;SDS011;5576;50.008;10.596;2022-09-20T16:38:24;2.10;;;1.60;;
11046;SDS011;5576;50.008;10.596;2022-09-20T16:40:49;3.13;;;2.00;;
11046;SDS011;5576;50.008;10.596;2022-09-20T16:43:16;15.88;;;9.15;;
11046;SDS011;5576;50.008;10.596;2022-09-20T16:45:47;10.80;;;7.80;;
11046;SDS011;5576;50.008;10.596;2022-09-20T16:48:12;5.72;;;5.22;;
11046;SDS011;5576;50.008;10.596;2022-09-20T16:50:38;5.17;;;3.87;;
11046;SDS011;5576;50.008;10.596;2022-09-20T16:53:04;3.40;;;2.58;;
11046;SDS011;5576;50.008;10.596;2022-09-20T16:55:29;1.83;;;1.40;;
11046;SDS011;5576;50.008;10.596;2022-09-20T16:57:56;3.40;;;2.07;;
11046;SDS011;5576;50.008;10.596;2022-09-20T17:00:22;4.00;;;1.80;;
11046;SDS011;5576;50.008;10.596;2022-09-20T17:02:48;2.50;;;2.10;;
11046;SDS011;5576;50.008;10.596;2022-09-20T17:05:15;5.40;;;4.90;;
11046;SDS011;5576;50.008;10.596;2022-09-20T17:07:41;2.50;;;2.27;;
11046;SDS011;5576;50.008;10.596;2022-09-20T17:10:07;2.10;;;1.90;;
11046;SDS011;5576;50.008;10.596;2022-09-20T17:12:34;3.00;;;2.17;;
11046;SDS011;5576;50.008;10.596;2022-09-20T17:15:06;2.80;;;1.83;;
11046;SDS011;5576;50.008;10.596;2022-09-20T17:17:32;0.88;;;0.80;;
11046;SDS011;5576;50.008;10.596;2022-09-20T17:19:58;2.13;;;1.92;;
11046;SDS011;5576;50.008;10.596;2022-09-20T17:22:27;1.20;;;1.10;;
11046;SDS011;5576;50.008;10.596;2022-09-20T17:24:53;2.30;;;2.10;;
11046;SDS011;5576;50.008;10.596;2022-09-20T17:27:19;1.35;;;1.20;;
11046;SDS011;5576;50.008;10.596;2022-09-20T17:29:46;2.05;;;1.25;;
11046;SDS011;5576;50.008;10.596;2022-09-20T17:32:11;2.97;;;2.40;;
11046;SDS011;5576;50.008;10.596;2022-09-20T17:34:37;1.80;;;1.70;;
11046;SDS011;5576;50.008;10.596;2022-09-20T17:37:03;1.45;;;1.20;;
11046;SDS011;5576;50.008;10.596;2022-09-20T17:39:30;2.10;;;1.50;;
11046;SDS011;5576;50.008;10.596;2022-09-20T17:41:55;6.85;;;6.03;;
11046;SDS011;5576;50.008;10.596;2022-09-20T17:44:21;6.13;;;5.27;;
11046;SDS011;5576;50.008;10.596;2022-09-20T17:46:48;4.90;;;3.47;;
11046;SDS011;5576;50.008;10.596;2022-09-20T17:49:16;6.22;;;4.82;;
11046;SDS011;5576;50.008;10.596;2022-09-20T17:51:47;10.32;;;9.32;;
11046;SDS011;5576;50.008;10.596;2022-09-20T17:54:15;5.65;;;4.95;;
11046;SDS011;5576;50.008;10.596;2022-09-20T17:56:42;5.75;;;5.20;;
11046;SDS011;5576;50.008;10.596;2022-09-20T17:59:10;5.65;;;4.55;;
11046;SDS011;5576;50.008;10.596;2022-09-20T18:01:38;3.35;;;3.05;;
11046;SDS011;5576;50.008;10.596;2022-09-20T18:04:04;10.88;;;9.77;;
11046;SDS011;5576;50.008;10.596;2022-09-20T18:06:31;7.90;;;7.10;;
11046;SDS011;5576;50.008;10.596;2022-09-20T18:09:02;11.18;;;8.80;;
11046;SDS011;5576;50.008;10.596;2022-09-20T18:11:31;10.97;;;8.73;;
11046;SDS011;5576;50.008;10.596;2022-09-20T18:13:59;8.25;;;7.25;;
11046;SDS011;5576;50.008;10.596;2022-09-20T18:16:25;3.42;;;2.90;;
11046;SDS011;5576;50.008;10.596;2022-09-20T18:18:51;4.07;;;3.67;;
11046;SDS011;5576;50.008;10.596;2022-09-20T18:21:18;5.67;;;4.67;;
11046;SDS011;5576;50.008;10.596;2022-09-20T18:23:45;5.03;;;3.60;;
11046;SDS011;5576;50.008;10.596;2022-09-20T18:26:13;5.20;;;4.15;;
11046;SDS011;5576;50.008;10.596;2022-09-20T18:28:50;5.22;;;4.68;;
11046;SDS011;5576;50.008;10.596;2022-09-20T18:31:17;15.73;;;13.95;;
11046;SDS011;5576;50.008;10.596;2022-09-20T18:33:43;9.88;;;8.98;;
11046;SDS011;5576;50.008;10.596;2022-09-20T18:36:09;12.90;;;11.80;;
11046;SDS011;5576;50.008;10.596;2022-09-20T18:38:35;7.10;;;6.47;;
11046;SDS011;5576;50.008;10.596;2022-09-20T18:41:01;6.00;;;5.50;;
11046;SDS011;5576;50.008;10.596;2022-09-20T18:43:30;7.28;;;6.68;;
11046;SDS011;5576;50.008;10.596;2022-09-20T18:45:59;6.30;;;5.70;;
11046;SDS011;5576;50.008;10.596;2022-09-20T18:48:25;4.70;;;4.30;;
11046;SDS011;5576;50.008;10.596;2022-09-20T18:50:58;3.45;;;3.15;;
11046;SDS011;5576;50.008;10.596;2022-09-20T18:53:25;2.40;;;2.20;;
11046;SDS011;5576;50.008;10.596;2022-09-20T18:55:52;1.40;;;1.30;;
11046;SDS011;5576;50.008;10.596;2022-09-20T18:58:19;1.90;;;1.80;;
11046;SDS011;5576;50.008;10.596;2022-09-20T19:00:47;2.88;;;2.05;;
11046;SDS011;5576;50.008;10.596;2022-09-20T19:03:31;1.80;;;1.70;;
11046;SDS011;5576;50.008;10.596;2022-09-20T19:06:09;1.52;;;1.42;;
11046;SDS011;5576;50.008;10.596;2022-09-20T19:08:38;1.70;;;1.60;;
11046;SDS011;5576;50.008;10.596;2022-09-20T19:11:11;2.23;;;2.03;;
11046;SDS011;5576;50.008;10.596;2022-09-20T19:13:56;1.67;;;1.48;;
11046;SDS011;5576;50.008;10.596;2022-09-20T19:16:35;3.13;;;2.60;;
11046;SDS011;5576;50.008;10.596;2022-09-20T19:26:52;3.90;;;3.60;;
11046;SDS011;5576;50.008;10.596;2022-09-20T19:29:19;3.90;;;2.60;;
11046;SDS011;5576;50.008;10.596;2022-09-20T19:31:47;3.70;;;3.40;;
11046;SDS011;5576;50.008;10.596;2022-09-20T19:34:16;5.90;;;5.30;;
11046;SDS011;5576;50.008;10.596;2022-09-20T19:39:47;4.88;;;4.47;;
11046;SDS011;5576;50.008;10.596;2022-09-20T19:47:59;3.03;;;2.77;;
11046;SDS011;5576;50.008;10.596;2022-09-20T19:50:48;2.20;;;2.10;;
11046;SDS011;5576;50.008;10.596;2022-09-20T19:53:17;3.40;;;3.10;;
11046;SDS011;5576;50.008;10.596;2022-09-20T19:55:47;5.65;;;5.05;;
11046;SDS011;5576;50.008;10.596;2022-09-20T19:58:17;7.50;;;6.63;;
11046;SDS011;5576;50.008;10.596;2022-09-20T20:00:44;4.05;;;3.38;;
11046;SDS011;5576;50.008;10.596;2022-09-20T20:03:11;3.55;;;3.25;;
11046;SDS011;5576;50.008;10.596;2022-09-20T20:05:41;2.90;;;1.77;;